Time;durP1;ratioP1;P1;durP2;ratioP2;P2;SDS_P1;SDS_P2;PMS_P1;PMS_P2;Temp;Humidity;BMP_temperature;BMP_pressure;BME280_temperature;BME280_humidity;BME280_pressure;Samples;Min_cycle;Max_cycle;Signal;HPM_P1;HPM_P2
2023/09/12 00:07:24;;;;;;;13.02;9.43;;;;;;;28.41;55.53;101449.06;21078046;28;20040;-58
2023/09/12 00:17:28;;;;;;;24.40;13.50;;;;;;;28.33;55.50;101443.03;21064727;28;20039;-58
2023/09/12 00:27:29;;;;;;;24.98;15.75;;;;;;;28.42;55.70;101464.81;21076167;28;20044;-60
2023/09/12 00:37:31;;;;;;;33.20;17.23;;;;;;;28.45;55.73;101484.69;21070604;28;20047;-59
2023/09/12 00:47:33;;;;;;;35.40;17.45;;;;;;;28.50;55.77;101475.28;21066670;28;20040;-58
2023/09/12 00:57:35;;;;;;;34.45;17.50;;;;;;;28.51;55.68;101465.72;21063543;28;20449;-58
2023/09/12 01:07:42;;;;;;;26.48;14.60;;;;;;;28.47;55.74;101481.59;21082151;28;20536;-60
2023/09/12 01:17:45;;;;;;;25.75;13.25;;;;;;;28.37;52.24;101446.09;21054084;28;20048;-57
2023/09/12 01:27:48;;;;;;;23.15;12.70;;;;;;;28.56;50.69;101468.41;21071229;28;20977;-59
2023/09/12 01:37:50;;;;;;;22.63;12.30;;;;;;;28.44;49.82;101454.88;21067307;28;20036;-58
2023/09/12 01:47:52;;;;;;;27.40;12.18;;;;;;;28.38;49.72;101455.34;21065647;28;20043;-57
2023/09/12 01:57:54;;;;;;;24.52;11.73;;;;;;;28.26;49.68;101425.75;21068607;28;20036;-57
2023/09/12 02:07:55;;;;;;;22.77;11.27;;;;;;;28.27;49.40;101447.13;21075554;28;20097;-56
2023/09/12 02:17:56;;;;;;;62.22;45.03;;;;;;;28.20;53.58;101443.09;21071171;28;20090;-53
2023/09/12 02:27:58;;;;;;;102.60;75.63;;;;;;;28.12;55.13;101441.88;21085137;28;20113;-55
2023/09/12 02:37:59;;;;;;;144.85;111.40;;;;;;;28.15;55.61;101457.28;21077826;28;20028;-56
2023/09/12 02:48:01;;;;;;;164.32;129.85;;;;;;;28.12;56.08;101455.94;21070680;28;20105;-57
2023/09/12 02:58:02;;;;;;;151.40;121.45;;;;;;;28.13;56.28;101451.97;21054878;28;20044;-59
2023/09/12 03:08:04;;;;;;;133.55;103.90;;;;;;;28.15;56.41;101449.69;21080063;28;20044;-58
2023/09/12 03:18:10;;;;;;;114.55;89.65;;;;;;;28.09;56.48;101445.34;21081169;28;20048;-57
2023/09/12 03:28:11;;;;;;;95.37;75.83;;;;;;;28.20;57.84;101465.59;21076478;28;20052;-57
2023/09/12 03:38:12;;;;;;;84.70;65.70;;;;;;;28.31;58.47;101490.34;21068457;28;20097;-56
2023/09/12 03:48:16;;;;;;;70.82;55.88;;;;;;;28.28;58.87;101502.28;21069914;28;20036;-58
2023/09/12 03:58:18;;;;;;;63.88;49.45;;;;;;;28.22;58.95;101468.91;21072511;28;20047;-59
2023/09/12 04:08:19;;;;;;;55.28;43.13;;;;;;;28.35;58.72;101479.31;21072621;28;20048;-56
2023/09/12 04:18:20;;;;;;;51.58;40.55;;;;;;;28.40;58.41;101482.00;21072049;28;20040;-57
2023/09/12 04:28:22;;;;;;;48.13;37.65;;;;;;;28.36;58.31;101484.66;21071603;28;20044;-58
2023/09/12 04:38:24;;;;;;;38.95;32.55;;;;;;;28.32;58.32;101491.22;21054374;28;20044;-57
2023/09/12 04:48:25;;;;;;;35.17;29.77;;;;;;;28.32;58.27;101475.16;21065017;28;20040;-56
2023/09/12 04:58:27;;;;;;;34.60;28.20;;;;;;;28.38;58.15;101475.06;21070571;28;20387;-61
2023/09/12 05:08:28;;;;;;;30.90;24.65;;;;;;;28.40;57.99;101464.28;21067430;28;20465;-57
2023/09/12 05:18:30;;;;;;;30.83;23.83;;;;;;;28.43;57.80;101453.22;21073521;28;20044;-56
2023/09/12 05:28:31;;;;;;;30.88;23.25;;;;;;;28.47;57.62;101453.44;21071160;28;20398;-56
2023/09/12 05:38:33;;;;;;;25.02;20.98;;;;;;;28.50;57.18;101453.63;21055565;28;20039;-57
2023/09/12 05:48:34;;;;;;;20.88;18.33;;;;;;;28.48;57.21;101455.09;21070297;28;20059;-57
2023/09/12 05:58:35;;;;;;;19.90;17.48;;;;;;;28.47;57.23;101454.25;21084507;28;20028;-57
2023/09/12 06:08:37;;;;;;;19.83;17.65;;;;;;;28.56;56.99;101462.78;21088183;28;20043;-57
2023/09/12 06:18:38;;;;;;;19.02;16.27;;;;;;;28.54;56.64;101470.69;21086892;28;20037;-55
2023/09/12 06:28:40;;;;;;;17.50;15.38;;;;;;;28.51;56.96;101454.47;21080642;28;20044;-58
2023/09/12 06:38:41;;;;;;;17.40;15.02;;;;;;;28.50;57.00;101448.00;21081450;28;20048;-57
2023/09/12 06:48:43;;;;;;;16.73;14.45;;;;;;;28.53;56.97;101450.16;21078709;28;20547;-57
2023/09/12 06:58:44;;;;;;;16.92;13.30;;;;;;;28.54;56.66;101465.06;21078289;28;20089;-57
2023/09/12 07:08:45;;;;;;;15.25;13.48;;;;;;;28.45;56.50;101424.75;21076072;28;20059;-56
2023/09/12 07:18:49;;;;;;;13.88;12.38;;;;;;;28.57;56.57;101445.53;21079281;28;20085;-56
2023/09/12 07:28:51;;;;;;;14.00;11.85;;;;;;;28.55;56.50;101444.22;21073065;28;20052;-58
2023/09/12 07:38:52;;;;;;;12.98;11.18;;;;;;;28.56;56.34;101434.63;21073854;28;20032;-57
2023/09/12 07:48:53;;;;;;;12.68;10.57;;;;;;;28.58;56.30;101437.94;21074140;28;20044;-57
2023/09/12 07:58:58;;;;;;;11.38;9.88;;;;;;;28.60;56.47;101430.84;21073817;28;20555;-58
2023/09/12 08:09:05;;;;;;;11.27;9.75;;;;;;;28.59;56.22;101423.53;21071140;28;20077;-58
2023/09/12 08:19:06;;;;;;;11.23;9.73;;;;;;;28.61;56.09;101414.75;21078020;28;20097;-56
2023/09/12 08:29:08;;;;;;;10.07;8.88;;;;;;;28.56;56.16;101412.09;21059004;28;20411;-57
2023/09/12 08:39:16;;;;;;;9.27;8.32;;;;;;;28.54;56.31;101420.00;21062380;28;20387;-57
2023/09/12 08:49:18;;;;;;;9.07;8.18;;;;;;;28.59;55.98;101428.31;21070114;28;20075;-58
2023/09/12 08:59:20;;;;;;;8.65;7.68;;;;;;;28.57;56.01;101433.44;21067678;28;20391;-58
2023/09/12 09:09:22;;;;;;;8.23;7.20;;;;;;;28.58;56.02;101443.56;21063175;28;20571;-58
2023/09/12 09:19:41;;;;;;;8.13;7.28;;;;;;;28.58;55.80;101450.00;21071788;28;20066;-57
2023/09/12 09:29:48;;;;;;;7.22;6.45;;;;;;;28.65;55.92;101460.84;21064297;28;20048;-56
2023/09/12 09:39:52;;;;;;;6.72;6.03;;;;;;;28.59;56.08;101453.66;21084810;28;20069;-58
2023/09/12 09:49:57;;;;;;;7.53;6.50;;;;;;;28.61;55.78;101448.56;21074571;28;20096;-57
2023/09/12 09:59:59;;;;;;;6.40;5.80;;;;;;;28.56;55.88;101457.13;21079496;28;20716;-57
2023/09/12 10:10:03;;;;;;;6.57;5.90;;;;;;;28.62;55.62;101467.09;21084059;28;20051;-57
2023/09/12 10:20:12;;;;;;;6.20;5.60;;;;;;;28.59;55.81;101468.59;21084245;28;20077;-58
2023/09/12 10:30:14;;;;;;;6.20;5.35;;;;;;;28.62;55.73;101473.56;21084157;28;20040;-58
2023/09/12 10:40:17;;;;;;;6.57;5.60;;;;;;;28.58;55.73;101499.88;21073427;28;20040;-58
2023/09/12 10:50:23;;;;;;;6.07;5.40;;;;;;;28.62;55.93;101486.81;21067230;28;20066;-58
2023/09/12 11:00:27;;;;;;;10.87;5.33;;;;;;;28.54;56.41;101499.66;21076468;28;20036;-56
2023/09/12 11:10:31;;;;;;;10.07;5.80;;;;;;;28.56;56.33;101496.56;21070884;28;20081;-57
2023/09/12 11:20:53;;;;;;;14.68;5.88;;;;;;;28.70;55.67;101517.03;21039539;28;20036;-57
2023/09/12 11:30:57;;;;;;;10.10;6.68;;;;;;;28.80;55.48;101524.38;21081015;28;20399;-59
2023/09/12 11:40:59;;;;;;;12.45;6.95;;;;;;;28.81;55.24;101532.50;21081312;28;20037;-56
2023/09/12 11:51:03;;;;;;;12.85;6.28;;;;;;;28.81;55.20;101542.94;21079500;28;20475;-59
2023/09/12 12:01:04;;;;;;;14.02;7.07;;;;;;;28.78;55.21;101538.78;21079695;28;20433;-58
2023/09/12 12:11:07;;;;;;;13.23;6.55;;;;;;;28.79;55.05;101534.81;21079049;28;20456;-57
2023/09/12 12:21:08;;;;;;;14.27;7.55;;;;;;;28.79;55.18;101539.63;21077195;28;20036;-58
2023/09/12 12:31:09;;;;;;;11.57;6.60;;;;;;;28.78;55.10;101544.44;21076794;28;20105;-59
2023/09/12 12:41:11;;;;;;;13.73;6.43;;;;;;;28.77;55.00;101542.78;21076485;28;20058;-59
2023/09/12 12:51:19;;;;;;;12.52;6.65;;;;;;;28.76;54.89;101548.69;21075995;28;20055;-58
2023/09/12 13:01:21;;;;;;;9.25;6.18;;;;;;;28.74;54.71;101554.66;21089329;28;20036;-58
2023/09/12 13:11:22;;;;;;;9.23;6.03;;;;;;;28.64;55.04;101532.41;21093151;28;20086;-57
2023/09/12 13:21:24;;;;;;;9.98;5.75;;;;;;;28.71;54.92;101560.94;21092382;28;20052;-59
2023/09/12 13:31:25;;;;;;;12.43;6.03;;;;;;;28.75;54.86;101567.59;21091291;28;20044;-58
2023/09/12 13:41:27;;;;;;;11.00;6.10;;;;;;;28.74;54.86;101573.56;21090765;28;20039;-58
2023/09/12 13:51:29;;;;;;;8.90;5.53;;;;;;;28.74;54.66;101582.00;21090249;28;20036;-57
2023/09/12 14:01:30;;;;;;;8.88;5.40;;;;;;;28.75;54.81;101583.66;21088311;28;20040;-57
2023/09/12 14:11:35;;;;;;;9.13;5.53;;;;;;;28.74;54.59;101584.81;21086987;28;20105;-58
2023/09/12 14:21:36;;;;;;;8.55;5.22;;;;;;;28.69;54.67;101574.50;21086795;28;20487;-58
2023/09/12 14:31:49;;;;;;;9.52;5.22;;;;;;;28.75;54.61;101584.50;21086847;28;20047;-58
2023/09/12 14:41:54;;;;;;;6.60;5.15;;;;;;;28.75;54.64;101576.03;21085526;28;20051;-58
2023/09/12 14:51:58;;;;;;;8.33;5.03;;;;;;;28.73;54.50;101569.91;21084974;28;20395;-57
2023/09/12 15:01:59;;;;;;;6.97;5.15;;;;;;;28.74;54.51;101565.94;21084046;28;20032;-58
2023/09/12 15:12:01;;;;;;;7.35;4.78;;;;;;;28.75;54.40;101567.59;21082969;28;20036;-58
2023/09/12 15:22:02;;;;;;;5.68;4.45;;;;;;;28.75;54.18;101556.31;21081164;28;20039;-57
2023/09/12 15:32:07;;;;;;;6.20;4.20;;;;;;;28.77;54.28;101556.84;21080906;28;20376;-58
2023/09/12 15:42:08;;;;;;;6.53;4.47;;;;;;;28.71;51.87;101544.03;21080514;28;20040;-58
2023/09/12 15:52:09;;;;;;;5.82;4.07;;;;;;;28.57;50.48;101540.44;21079216;28;20032;-58
2023/09/12 16:02:11;;;;;;;5.03;3.90;;;;;;;28.43;49.76;101536.84;21079538;28;20051;-56
2023/09/12 16:12:12;;;;;;;5.57;3.80;;;;;;;28.30;49.31;101528.09;21078657;28;20106;-57
2023/09/12 16:22:16;;;;;;;4.57;3.47;;;;;;;28.24;49.22;101520.94;21077575;28;20032;-57
2023/09/12 16:32:18;;;;;;;4.50;3.35;;;;;;;28.11;48.74;101502.09;21077400;28;20117;-57
2023/09/12 16:42:21;;;;;;;5.07;3.90;;;;;;;28.05;48.65;101514.63;21077266;28;20048;-59
2023/09/12 16:52:23;;;;;;;5.25;3.08;;;;;;;27.97;48.44;101490.06;21076232;28;20056;-57
2023/09/12 17:02:25;;;;;;;3.70;3.05;;;;;;;27.91;48.32;101471.66;21076172;28;20024;-58
2023/09/12 17:12:26;;;;;;;4.28;3.08;;;;;;;27.85;48.30;101466.09;21076382;28;20036;-57
2023/09/12 17:22:28;;;;;;;4.38;3.10;;;;;;;27.79;48.48;101444.88;21075528;28;20121;-58
2023/09/12 17:32:30;;;;;;;4.13;3.15;;;;;;;27.74;48.37;101436.56;21074434;28;20048;-58
2023/09/12 17:42:34;;;;;;;3.45;2.92;;;;;;;27.66;48.00;101431.66;21078346;28;20432;-57
2023/09/12 17:52:36;;;;;;;3.97;2.88;;;;;;;27.67;48.38;101419.25;21089069;28;20036;-58
2023/09/12 18:02:37;;;;;;;3.95;3.35;;;;;;;27.66;51.10;101417.59;21088808;28;20040;-57
2023/09/12 18:12:39;;;;;;;3.17;2.88;;;;;;;27.75;52.71;101400.84;21087669;28;20040;-57
2023/09/12 18:22:41;;;;;;;3.85;2.92;;;;;;;27.85;52.97;101392.97;21086849;28;20070;-58
2023/09/12 18:32:42;;;;;;;3.30;2.88;;;;;;;27.89;53.07;101367.88;21086497;28;20052;-57
2023/09/12 18:42:44;;;;;;;3.65;2.85;;;;;;;27.99;53.16;101363.97;21085723;28;20048;-58
2023/09/12 18:52:45;;;;;;;3.50;2.95;;;;;;;28.02;53.35;101344.47;21083975;28;20076;-58
2023/09/12 19:02:46;;;;;;;3.97;2.88;;;;;;;28.06;53.01;101342.69;21084087;28;20040;-58
2023/09/12 19:12:50;;;;;;;4.13;2.72;;;;;;;28.07;53.10;101323.81;21083153;28;20039;-58
2023/09/12 19:22:52;;;;;;;3.17;2.80;;;;;;;28.13;53.03;101314.09;21075106;28;20032;-58
2023/09/12 19:32:56;;;;;;;3.67;2.75;;;;;;;28.19;53.27;101301.56;21028287;28;20488;-58
2023/09/12 19:42:58;;;;;;;3.28;2.88;;;;;;;28.22;53.13;101300.91;20997607;28;20033;-58
2023/09/12 19:53:00;;;;;;;2.72;2.40;;;;;;;28.21;53.22;101299.25;21028582;28;20048;-59
2023/09/12 20:03:01;;;;;;;4.10;2.50;;;;;;;28.28;53.54;101310.91;21075319;28;20040;-55
2023/09/12 20:13:02;;;;;;;3.42;2.70;;;;;;;28.32;53.74;101300.66;21077354;28;20526;-59
2023/09/12 20:23:04;;;;;;;4.55;2.90;;;;;;;28.35;53.82;101299.19;21054681;28;20098;-58
2023/09/12 20:33:06;;;;;;;4.38;2.42;;;;;;;28.39;53.44;101288.13;21073873;28;20040;-58
2023/09/12 20:43:08;;;;;;;3.05;2.53;;;;;;;28.31;53.27;101261.56;21073548;28;20090;-57
2023/09/12 20:53:14;;;;;;;2.80;2.45;;;;;;;28.44;53.13;101276.72;21074011;28;20405;-58
2023/09/12 21:03:18;;;;;;;;;;;;;;;28.44;51.56;101273.91;21039310;28;20063;-59
2023/09/12 21:13:20;;;;;;;5.68;2.85;;;;;;;28.34;50.44;101270.22;21064410;28;20286;-60
2023/09/12 21:23:21;;;;;;;4.70;3.03;;;;;;;28.20;50.00;101272.28;21065723;28;20040;-60
2023/09/12 21:33:22;;;;;;;6.10;3.03;;;;;;;28.06;49.58;101263.09;21081413;28;20040;-58
2023/09/12 21:43:27;;;;;;;3.72;2.88;;;;;;;27.89;49.38;101248.91;21057838;28;20066;-60
2023/09/12 21:53:29;;;;;;;4.00;2.72;;;;;;;27.88;48.98;101250.09;21084909;28;20055;-59
2023/09/12 22:03:32;;;;;;;5.50;2.70;;;;;;;27.80;48.81;101241.25;21044755;28;20467;-63
2023/09/12 22:13:33;;;;;;;3.45;2.65;;;;;;;27.64;48.78;101230.72;21083976;28;20044;-60
2023/09/12 22:23:37;;;;;;;4.43;3.00;;;;;;;27.48;48.51;101219.81;21085152;28;20040;-60
2023/09/12 22:33:39;;;;;;;3.78;2.30;;;;;;;27.58;48.45;101252.47;21085565;28;20094;-58
2023/09/12 22:43:41;;;;;;;5.15;3.05;;;;;;;27.55;48.47;101258.75;21055522;28;20032;-61
2023/09/12 22:53:42;;;;;;;5.75;2.80;;;;;;;27.53;48.39;101255.41;21053792;28;20044;-61
2023/09/12 23:03:47;;;;;;;5.15;2.33;;;;;;;27.50;47.55;101250.44;21067462;28;20105;-59
2023/09/12 23:13:52;;;;;;;5.15;2.67;;;;;;;27.42;48.07;101237.97;21070747;28;20032;-59
2023/09/12 23:23:56;;;;;;;4.00;2.63;;;;;;;27.42;47.76;101254.00;21078825;28;20036;-59
2023/09/12 23:33:58;;;;;;;8.05;3.25;;;;;;;27.38;47.80;101241.75;21065986;28;20059;-60
2023/09/12 23:43:59;;;;;;;7.43;2.97;;;;;;;27.34;47.70;101248.00;21079896;28;20032;-60
2023/09/12 23:54:00;;;;;;;7.32;2.85;;;;;;;27.29;47.47;101244.47;21079568;28;20039;-60
